Time;durP1;ratioP1;P1;durP2;ratioP2;P2;SDS_P1;SDS_P2;PMS_P1;PMS_P2;Temp;Humidity;BMP_temperature;BMP_pressure;BME280_temperature;BME280_humidity;BME280_pressure;Samples;Min_cycle;Max_cycle;Signal;HPM_P1;HPM_P2
2019/10/10 00:01:16;;;;;;;1.23;1.13;;;;;;;19.54;56.68;100288.32;;;;-49
2019/10/10 00:04:17;;;;;;;1.29;1.19;;;;;;;19.53;56.70;100281.68;;;;-49
2019/10/10 00:07:17;;;;;;;1.41;1.30;;;;;;;19.52;56.67;100283.21;;;;-49
2019/10/10 00:10:16;;;;;;;1.77;1.30;;;;;;;19.52;56.72;100273.83;;;;-49
2019/10/10 00:13:16;;;;;;;1.53;1.39;;;;;;;19.52;56.67;100269.75;;;;-49
2019/10/10 00:16:17;;;;;;;2.41;1.38;;;;;;;19.51;56.68;100262.50;;;;-49
2019/10/10 00:19:16;;;;;;;1.53;1.30;;;;;;;19.51;56.65;100252.52;;;;-50
2019/10/10 00:22:16;;;;;;;1.40;1.30;;;;;;;19.51;56.71;100261.59;;;;-50
2019/10/10 00:25:16;;;;;;;1.45;1.25;;;;;;;19.49;56.73;100263.59;;;;-49
2019/10/10 00:29:01;;;;;;;1.59;1.40;;;;;;;19.50;56.70;100260.84;;;;-49
2019/10/10 00:31:16;;;;;;;1.24;1.14;;;;;;;19.49;56.71;100264.43;;;;-50
2019/10/10 00:34:16;;;;;;;1.41;1.31;;;;;;;19.49;56.71;100267.95;;;;-49
2019/10/10 00:37:16;;;;;;;1.29;1.18;;;;;;;19.49;56.71;100265.37;;;;-49
2019/10/10 00:40:16;;;;;;;1.47;1.32;;;;;;;19.48;56.70;100258.96;;;;-50
2019/10/10 00:43:16;;;;;;;1.37;1.27;;;;;;;19.48;56.69;100255.11;;;;-49
2019/10/10 00:46:17;;;;;;;1.41;1.28;;;;;;;19.48;56.71;100248.08;;;;-49
2019/10/10 00:49:16;;;;;;;1.49;1.19;;;;;;;19.47;56.71;100236.38;;;;-49
2019/10/10 00:52:16;;;;;;;1.69;1.39;;;;;;;19.47;56.69;100221.47;;;;-50
2019/10/10 00:55:16;;;;;;;1.90;1.30;;;;;;;19.47;56.75;100229.28;;;;-50
2019/10/10 00:58:16;;;;;;;1.29;1.19;;;;;;;19.46;56.69;100228.86;;;;-49
2019/10/10 01:01:16;;;;;;;1.20;1.10;;;;;;;19.46;56.73;100237.17;;;;-49
2019/10/10 01:04:16;;;;;;;1.40;1.30;;;;;;;19.46;56.73;100237.07;;;;-50
2019/10/10 01:07:16;;;;;;;1.31;1.21;;;;;;;19.45;56.70;100225.81;;;;-50
2019/10/10 01:10:16;;;;;;;1.25;1.15;;;;;;;19.45;56.72;100214.19;;;;-49
2019/10/10 01:13:16;;;;;;;1.31;1.20;;;;;;;19.45;56.72;100217.37;;;;-50
2019/10/10 01:16:16;;;;;;;1.44;1.34;;;;;;;19.45;56.71;100218.44;;;;-50
2019/10/10 01:19:16;;;;;;;1.28;1.18;;;;;;;19.45;56.72;100217.09;;;;-50
2019/10/10 01:22:17;;;;;;;1.40;1.17;;;;;;;19.44;56.70;100218.10;;;;-49
2019/10/10 01:25:16;;;;;;;1.27;1.17;;;;;;;19.44;56.71;100218.56;;;;-49
2019/10/10 01:28:17;;;;;;;1.27;1.11;;;;;;;19.44;56.73;100217.73;;;;-50
2019/10/10 01:31:16;;;;;;;1.21;1.11;;;;;;;19.43;56.74;100219.70;;;;-50
2019/10/10 01:34:16;;;;;;;1.22;1.15;;;;;;;19.43;56.72;100218.19;;;;-49
2019/10/10 01:37:16;;;;;;;1.15;1.07;;;;;;;19.42;56.70;100223.98;;;;-49
2019/10/10 01:40:16;;;;;;;1.19;1.10;;;;;;;19.42;56.70;100219.13;;;;-49
2019/10/10 01:43:16;;;;;;;1.30;1.20;;;;;;;19.41;56.74;100219.09;;;;-50
2019/10/10 01:46:17;;;;;;;1.22;1.12;;;;;;;19.42;56.71;100222.27;;;;-49
2019/10/10 01:49:16;;;;;;;1.59;1.19;;;;;;;19.41;56.71;100224.51;;;;-49
2019/10/10 01:52:16;;;;;;;1.29;1.19;;;;;;;19.42;56.70;100218.16;;;;-49
2019/10/10 01:55:16;;;;;;;1.16;1.10;;;;;;;19.41;56.70;100212.08;;;;-49
2019/10/10 01:58:16;;;;;;;1.14;1.10;;;;;;;19.40;56.72;100202.80;;;;-49
2019/10/10 02:02:17;;;;;;;1.20;1.10;;;;;;;19.40;56.69;100204.00;;;;-50
2019/10/10 02:06:16;;;;;;;1.69;1.19;;;;;;;19.40;56.71;100200.75;;;;-50
2019/10/10 02:09:16;;;;;;;1.01;1.01;;;;;;;19.38;56.75;100193.84;;;;-50
2019/10/10 02:12:16;;;;;;;1.23;1.13;;;;;;;19.38;56.73;100191.16;;;;-50
2019/10/10 02:15:16;;;;;;;1.21;1.10;;;;;;;19.38;56.75;100189.45;;;;-50
2019/10/10 02:18:17;;;;;;;1.13;1.03;;;;;;;19.38;56.74;100185.87;;;;-50
2019/10/10 02:23:17;;;;;;;1.21;1.11;;;;;;;19.37;56.75;100177.06;;;;-49
2019/10/10 02:26:16;;;;;;;0.99;0.99;;;;;;;19.36;56.71;100180.87;;;;-49
2019/10/10 02:29:16;;;;;;;1.13;1.01;;;;;;;19.37;56.75;100183.95;;;;-49
2019/10/10 02:32:16;;;;;;;1.00;1.00;;;;;;;19.36;56.71;100183.88;;;;-49
2019/10/10 02:35:17;;;;;;;1.01;1.01;;;;;;;19.37;56.71;100187.23;;;;-49
2019/10/10 02:38:17;;;;;;;1.20;1.10;;;;;;;19.37;56.71;100190.02;;;;-49
2019/10/10 02:41:17;;;;;;;1.21;1.11;;;;;;;19.37;56.71;100190.59;;;;-49
2019/10/10 02:44:16;;;;;;;1.17;1.07;;;;;;;19.36;56.76;100182.67;;;;-49
2019/10/10 02:47:16;;;;;;;1.37;1.19;;;;;;;19.36;56.73;100177.72;;;;-49
2019/10/10 02:50:16;;;;;;;1.21;1.12;;;;;;;19.36;56.71;100167.00;;;;-50
2019/10/10 02:53:16;;;;;;;1.17;1.09;;;;;;;19.35;56.71;100171.34;;;;-49
2019/10/10 02:59:25;;;;;;;1.40;1.19;;;;;;;19.34;56.72;100180.45;;;;-49
2019/10/10 03:02:19;;;;;;;1.05;1.05;;;;;;;19.35;56.74;100179.38;;;;-50
2019/10/10 03:05:16;;;;;;;1.00;1.00;;;;;;;19.34;56.75;100175.73;;;;-49
2019/10/10 03:08:16;;;;;;;1.13;1.03;;;;;;;19.34;56.70;100177.67;;;;-50
2019/10/10 03:11:16;;;;;;;0.89;0.89;;;;;;;19.34;56.71;100177.44;;;;-49
2019/10/10 03:15:17;;;;;;;1.20;1.10;;;;;;;19.34;56.76;100177.34;;;;-49
2019/10/10 03:18:17;;;;;;;1.21;1.11;;;;;;;19.34;56.70;100169.97;;;;-49
2019/10/10 03:21:16;;;;;;;1.09;1.09;;;;;;;19.33;56.71;100165.52;;;;-49
2019/10/10 03:24:16;;;;;;;1.11;1.00;;;;;;;19.33;56.72;100165.84;;;;-49
2019/10/10 03:27:16;;;;;;;1.06;1.04;;;;;;;19.33;56.72;100167.98;;;;-50
2019/10/10 03:30:16;;;;;;;0.98;0.98;;;;;;;19.33;56.71;100164.67;;;;-49
2019/10/10 03:33:16;;;;;;;1.15;1.14;;;;;;;19.33;56.72;100154.92;;;;-49
2019/10/10 03:36:16;;;;;;;1.19;1.02;;;;;;;19.32;56.72;100144.38;;;;-49
2019/10/10 03:39:16;;;;;;;1.06;1.06;;;;;;;19.32;56.74;100142.27;;;;-49
2019/10/10 03:42:16;;;;;;;1.20;1.10;;;;;;;19.33;56.73;100145.31;;;;-49
2019/10/10 03:45:16;;;;;;;1.05;1.05;;;;;;;19.32;56.76;100142.59;;;;-49
2019/10/10 03:48:16;;;;;;;1.05;0.97;;;;;;;19.31;56.74;100142.16;;;;-49
2019/10/10 03:51:16;;;;;;;0.90;0.90;;;;;;;19.32;56.67;100150.73;;;;-49
2019/10/10 03:54:16;;;;;;;1.87;1.09;;;;;;;19.31;56.72;100139.48;;;;-50
2019/10/10 03:57:17;;;;;;;1.21;1.11;;;;;;;19.30;56.75;100134.25;;;;-49
2019/10/10 04:00:16;;;;;;;1.00;1.00;;;;;;;19.31;56.72;100130.33;;;;-49
2019/10/10 04:03:16;;;;;;;1.20;1.10;;;;;;;19.31;56.72;100134.25;;;;-49
2019/10/10 04:06:16;;;;;;;1.20;1.11;;;;;;;19.31;56.71;100126.22;;;;-50
2019/10/10 04:09:16;;;;;;;0.90;0.90;;;;;;;19.30;56.73;100126.05;;;;-49
2019/10/10 04:12:16;;;;;;;1.06;1.00;;;;;;;19.31;56.69;100127.48;;;;-50
2019/10/10 04:15:16;;;;;;;1.04;1.01;;;;;;;19.29;56.75;100118.80;;;;-49
2019/10/10 04:18:16;;;;;;;0.95;0.95;;;;;;;19.30;56.69;100112.81;;;;-50
2019/10/10 04:21:16;;;;;;;1.20;1.09;;;;;;;19.30;56.75;100110.70;;;;-49
2019/10/10 04:24:16;;;;;;;1.01;1.01;;;;;;;19.29;56.73;100105.64;;;;-49
2019/10/10 04:27:16;;;;;;;1.00;1.00;;;;;;;19.29;56.68;100109.16;;;;-49
2019/10/10 04:30:16;;;;;;;1.07;0.95;;;;;;;19.29;56.73;100104.47;;;;-49
2019/10/10 04:33:17;;;;;;;1.07;1.02;;;;;;;19.29;56.74;100095.77;;;;-49
2019/10/10 04:36:16;;;;;;;1.10;1.00;;;;;;;19.29;56.75;100095.00;;;;-49
2019/10/10 04:39:16;;;;;;;1.00;1.00;;;;;;;19.30;56.72;100099.48;;;;-50
2019/10/10 04:42:16;;;;;;;1.04;1.01;;;;;;;19.30;56.73;100103.50;;;;-49
2019/10/10 04:45:16;;;;;;;1.06;1.00;;;;;;;19.31;56.71;100104.66;;;;-49
2019/10/10 04:48:16;;;;;;;1.17;1.07;;;;;;;19.33;56.71;100107.20;;;;-49
2019/10/10 04:51:16;;;;;;;1.28;1.10;;;;;;;19.34;56.61;100109.19;;;;-49
2019/10/10 04:54:16;;;;;;;0.96;0.96;;;;;;;19.37;56.57;100129.00;;;;-49
2019/10/10 04:57:16;;;;;;;1.19;1.10;;;;;;;19.40;56.51;100135.21;;;;-50
2019/10/10 05:00:16;;;;;;;0.91;0.91;;;;;;;19.44;56.44;100141.06;;;;-49
2019/10/10 05:03:16;;;;;;;1.00;1.00;;;;;;;19.47;56.37;100146.17;;;;-50
2019/10/10 05:06:16;;;;;;;0.90;0.90;;;;;;;19.51;56.41;100151.19;;;;-49
2019/10/10 05:09:16;;;;;;;0.81;0.81;;;;;;;19.54;56.50;100169.73;;;;-50
2019/10/10 05:12:16;;;;;;;1.00;1.00;;;;;;;19.57;56.60;100183.02;;;;-50
2019/10/10 05:15:17;;;;;;;0.89;0.89;;;;;;;19.61;56.53;100180.96;;;;-49
2019/10/10 05:18:16;;;;;;;1.00;1.00;;;;;;;19.64;56.66;100196.76;;;;-50
2019/10/10 05:21:16;;;;;;;1.12;1.02;;;;;;;19.68;56.69;100203.52;;;;-50
2019/10/10 05:24:16;;;;;;;0.90;0.90;;;;;;;19.70;56.74;100204.20;;;;-50
2019/10/10 05:27:16;;;;;;;0.91;0.91;;;;;;;19.73;56.79;100203.15;;;;-50
2019/10/10 05:30:16;;;;;;;0.83;0.83;;;;;;;19.76;56.82;100212.55;;;;-49
2019/10/10 05:33:16;;;;;;;1.17;1.05;;;;;;;19.80;56.83;100230.30;;;;-49
2019/10/10 05:36:16;;;;;;;1.00;1.00;;;;;;;19.83;56.84;100245.00;;;;-49
2019/10/10 05:39:16;;;;;;;1.10;1.00;;;;;;;19.85;56.86;100253.02;;;;-49
2019/10/10 05:42:16;;;;;;;0.96;0.96;;;;;;;19.87;56.79;100248.67;;;;-50
2019/10/10 05:45:16;;;;;;;0.86;0.86;;;;;;;19.90;56.81;100240.31;;;;-49
2019/10/10 05:48:16;;;;;;;1.37;0.99;;;;;;;19.92;56.87;100233.69;;;;-49
2019/10/10 05:51:16;;;;;;;1.10;0.99;;;;;;;19.93;56.83;100238.79;;;;-49
2019/10/10 05:54:16;;;;;;;0.98;0.98;;;;;;;19.95;56.80;100249.05;;;;-49
2019/10/10 05:57:16;;;;;;;1.00;1.00;;;;;;;19.97;56.81;100260.20;;;;-49
2019/10/10 06:00:16;;;;;;;0.93;0.93;;;;;;;19.97;56.73;100255.61;;;;-49
2019/10/10 06:03:16;;;;;;;0.95;0.91;;;;;;;19.99;56.78;100264.27;;;;-49
2019/10/10 06:06:16;;;;;;;1.00;1.00;;;;;;;20.01;56.69;100279.83;;;;-49
2019/10/10 06:09:16;;;;;;;0.97;0.97;;;;;;;20.02;56.66;100280.10;;;;-49
2019/10/10 06:12:16;;;;;;;1.00;1.00;;;;;;;20.02;56.62;100274.34;;;;-49
2019/10/10 06:15:16;;;;;;;1.01;0.99;;;;;;;20.02;56.57;100268.48;;;;-49
2019/10/10 06:18:16;;;;;;;1.02;1.00;;;;;;;20.03;56.55;100280.25;;;;-49
2019/10/10 06:21:16;;;;;;;0.90;0.90;;;;;;;20.04;56.52;100288.60;;;;-49
2019/10/10 06:24:16;;;;;;;0.91;0.91;;;;;;;20.04;56.47;100297.55;;;;-50
2019/10/10 06:27:16;;;;;;;0.87;0.87;;;;;;;20.04;56.45;100303.35;;;;-49
2019/10/10 06:30:16;;;;;;;0.86;0.86;;;;;;;20.05;56.42;100301.37;;;;-50
2019/10/10 06:33:16;;;;;;;0.98;0.97;;;;;;;20.06;56.39;100312.38;;;;-49
2019/10/10 06:36:16;;;;;;;0.90;0.90;;;;;;;20.06;56.36;100320.59;;;;-49
2019/10/10 06:39:16;;;;;;;0.90;0.90;;;;;;;20.07;56.28;100333.38;;;;-49
2019/10/10 06:42:16;;;;;;;0.79;0.79;;;;;;;20.06;56.26;100336.70;;;;-50
2019/10/10 06:45:16;;;;;;;0.81;0.81;;;;;;;20.07;56.22;100343.03;;;;-49
2019/10/10 06:48:16;;;;;;;0.96;0.96;;;;;;;20.06;56.17;100346.75;;;;-50
2019/10/10 06:51:16;;;;;;;0.80;0.80;;;;;;;20.08;56.22;100356.05;;;;-49
2019/10/10 06:54:16;;;;;;;0.90;0.90;;;;;;;20.07;56.12;100365.73;;;;-49
2019/10/10 06:57:16;;;;;;;0.77;0.77;;;;;;;20.06;56.10;100368.88;;;;-49
2019/10/10 07:00:16;;;;;;;1.67;0.98;;;;;;;20.07;56.07;100379.82;;;;-49
2019/10/10 07:03:16;;;;;;;0.90;0.90;;;;;;;20.08;56.03;100395.18;;;;-50
2019/10/10 07:06:16;;;;;;;0.87;0.87;;;;;;;20.08;56.00;100403.33;;;;-50
2019/10/10 07:09:16;;;;;;;0.91;0.91;;;;;;;20.07;55.96;100411.67;;;;-49
2019/10/10 07:12:16;;;;;;;1.07;0.89;;;;;;;20.08;56.00;100421.33;;;;-49
2019/10/10 07:15:16;;;;;;;0.93;0.93;;;;;;;20.07;55.94;100428.16;;;;-49
2019/10/10 07:18:16;;;;;;;0.84;0.84;;;;;;;20.07;55.93;100441.11;;;;-50
2019/10/10 07:21:16;;;;;;;0.80;0.80;;;;;;;20.07;55.91;100448.16;;;;-49
2019/10/10 07:24:16;;;;;;;0.83;0.83;;;;;;;20.08;55.88;100447.48;;;;-50
2019/10/10 07:27:16;;;;;;;1.00;1.00;;;;;;;20.08;55.87;100448.42;;;;-50
2019/10/10 07:30:16;;;;;;;0.88;0.88;;;;;;;20.07;55.89;100455.77;;;;-50
2019/10/10 07:33:16;;;;;;;0.69;0.69;;;;;;;20.07;55.77;100462.81;;;;-50
2019/10/10 07:36:16;;;;;;;0.92;0.92;;;;;;;20.07;55.85;100473.03;;;;-49
2019/10/10 07:39:16;;;;;;;0.91;0.91;;;;;;;20.08;55.77;100488.89;;;;-50
2019/10/10 07:42:35;;;;;;;1.02;1.00;;;;;;;20.08;55.76;100497.62;;;;-49
2019/10/10 07:45:16;;;;;;;0.93;0.92;;;;;;;20.08;55.73;100507.51;;;;-49
2019/10/10 07:48:16;;;;;;;0.74;0.74;;;;;;;20.06;55.69;100522.88;;;;-50
2019/10/10 07:51:16;;;;;;;0.80;0.80;;;;;;;20.07;55.74;100530.88;;;;-50
2019/10/10 07:54:17;;;;;;;0.83;0.83;;;;;;;20.07;55.72;100544.62;;;;-49
2019/10/10 07:57:16;;;;;;;0.87;0.86;;;;;;;20.06;55.71;100543.84;;;;-49
2019/10/10 08:04:16;;;;;;;0.85;0.85;;;;;;;20.04;55.71;100544.99;;;;-48
2019/10/10 08:07:16;;;;;;;0.82;0.82;;;;;;;20.04;55.74;100552.77;;;;-56
2019/10/10 08:10:16;;;;;;;0.93;0.93;;;;;;;20.04;55.71;100548.07;;;;-56
2019/10/10 08:13:16;;;;;;;0.90;0.90;;;;;;;20.03;55.74;100555.41;;;;-45
2019/10/10 08:16:16;;;;;;;1.01;1.00;;;;;;;20.03;55.72;100559.30;;;;-46
2019/10/10 08:19:16;;;;;;;0.87;0.87;;;;;;;20.03;55.74;100565.56;;;;-46
2019/10/10 08:22:16;;;;;;;0.81;0.81;;;;;;;20.02;55.74;100566.47;;;;-46
2019/10/10 08:25:16;;;;;;;0.93;0.89;;;;;;;20.02;55.73;100569.98;;;;-45
2019/10/10 08:28:16;;;;;;;0.80;0.80;;;;;;;20.02;55.71;100578.77;;;;-45
2019/10/10 08:31:16;;;;;;;0.90;0.90;;;;;;;20.01;55.73;100576.95;;;;-46
2019/10/10 08:34:17;;;;;;;7.97;1.43;;;;;;;20.00;56.37;100586.39;;;;-50
2019/10/10 08:37:16;;;;;;;2.53;1.13;;;;;;;20.01;56.21;100598.91;;;;-47
2019/10/10 08:40:16;;;;;;;7.83;1.35;;;;;;;20.04;56.44;100599.37;;;;-50
2019/10/10 08:43:17;;;;;;;7.99;1.33;;;;;;;20.05;55.98;100586.55;;;;-50
2019/10/10 08:46:16;;;;;;;10.36;1.47;;;;;;;20.06;56.08;100587.93;;;;-50
2019/10/10 08:49:16;;;;;;;6.30;1.31;;;;;;;20.07;56.29;100593.08;;;;-48
2019/10/10 08:52:16;;;;;;;6.53;1.33;;;;;;;20.09;56.21;100599.26;;;;-50
2019/10/10 08:55:16;;;;;;;2.01;1.21;;;;;;;20.10;56.16;100601.25;;;;-50
2019/10/10 08:58:16;;;;;;;5.99;1.32;;;;;;;20.12;56.15;100607.94;;;;-49
2019/10/10 09:01:16;;;;;;;5.81;1.26;;;;;;;20.12;56.10;100607.94;;;;-51
2019/10/10 09:04:16;;;;;;;2.26;1.20;;;;;;;20.12;56.01;100607.45;;;;-51
2019/10/10 09:07:16;;;;;;;4.17;1.25;;;;;;;20.13;56.00;100602.63;;;;-58
2019/10/10 09:10:16;;;;;;;3.29;1.31;;;;;;;20.13;56.07;100611.61;;;;-56
2019/10/10 09:13:16;;;;;;;6.00;1.28;;;;;;;20.15;56.02;100620.48;;;;-53
2019/10/10 09:16:16;;;;;;;6.45;1.24;;;;;;;20.14;56.14;100619.94;;;;-51
2019/10/10 09:19:16;;;;;;;3.85;1.26;;;;;;;20.17;56.11;100621.41;;;;-62
2019/10/10 09:22:16;;;;;;;4.62;1.31;;;;;;;20.17;56.15;100625.67;;;;-54
2019/10/10 09:25:16;;;;;;;3.44;1.31;;;;;;;20.16;56.13;100631.09;;;;-55
2019/10/10 09:28:16;;;;;;;2.21;1.21;;;;;;;20.16;56.08;100620.36;;;;-54
2019/10/10 09:31:16;;;;;;;5.22;1.44;;;;;;;20.16;56.15;100624.55;;;;-63
2019/10/10 09:34:16;;;;;;;3.29;1.32;;;;;;;20.16;56.22;100629.25;;;;-62
2019/10/10 09:37:16;;;;;;;3.29;1.23;;;;;;;20.17;56.19;100628.56;;;;-57
2019/10/10 09:40:16;;;;;;;5.03;1.20;;;;;;;20.18;56.16;100628.40;;;;-55
2019/10/10 09:43:16;;;;;;;4.46;1.09;;;;;;;20.19;56.13;100629.72;;;;-60
2019/10/10 09:46:16;;;;;;;4.55;1.33;;;;;;;20.19;56.25;100629.38;;;;-57
2019/10/10 09:49:16;;;;;;;3.97;1.30;;;;;;;20.18;56.33;100635.15;;;;-64
2019/10/10 09:52:16;;;;;;;3.12;1.22;;;;;;;20.19;56.32;100639.78;;;;-53
2019/10/10 09:55:16;;;;;;;2.37;1.33;;;;;;;20.19;56.25;100645.09;;;;-58
2019/10/10 09:58:16;;;;;;;10.38;1.10;;;;;;;20.21;56.24;100643.80;;;;-57
2019/10/10 10:01:16;;;;;;;4.56;1.19;;;;;;;20.22;56.28;100647.36;;;;-58
2019/10/10 10:04:16;;;;;;;4.23;1.29;;;;;;;20.22;56.23;100646.45;;;;-60
2019/10/10 10:10:16;;;;;;;2.57;1.11;;;;;;;20.22;56.32;100655.84;;;;-59
2019/10/10 10:13:16;;;;;;;2.07;1.19;;;;;;;20.22;56.32;100655.95;;;;-60
2019/10/10 10:16:16;;;;;;;2.49;1.19;;;;;;;20.22;56.32;100660.98;;;;-60
2019/10/10 10:19:16;;;;;;;3.22;1.10;;;;;;;20.22;56.20;100665.23;;;;-55
2019/10/10 10:22:16;;;;;;;1.13;0.99;;;;;;;20.24;56.21;100664.45;;;;-53
2019/10/10 10:25:16;;;;;;;1.69;1.12;;;;;;;20.24;56.20;100662.75;;;;-56
2019/10/10 10:28:16;;;;;;;2.33;1.29;;;;;;;20.24;56.24;100665.33;;;;-59
2019/10/10 10:31:16;;;;;;;1.71;1.07;;;;;;;20.24;56.32;100668.75;;;;-57
2019/10/10 10:34:16;;;;;;;1.73;1.20;;;;;;;20.23;56.30;100665.05;;;;-57
2019/10/10 10:37:16;;;;;;;1.07;1.01;;;;;;;20.23;56.32;100667.97;;;;-56
2019/10/10 10:40:16;;;;;;;1.36;1.19;;;;;;;20.23;56.27;100667.13;;;;-53
2019/10/10 10:43:16;;;;;;;2.25;1.05;;;;;;;20.23;56.29;100666.06;;;;-54
2019/10/10 10:46:16;;;;;;;1.11;0.97;;;;;;;20.24;56.26;100662.64;;;;-55
2019/10/10 10:49:16;;;;;;;1.35;1.08;;;;;;;20.22;56.35;100661.66;;;;-55
2019/10/10 10:52:16;;;;;;;1.99;0.99;;;;;;;20.24;56.34;100658.69;;;;-56
2019/10/10 10:55:16;;;;;;;1.26;1.15;;;;;;;20.21;56.33;100660.09;;;;-56
2019/10/10 10:58:16;;;;;;;1.36;1.16;;;;;;;20.20;56.28;100657.20;;;;-56
2019/10/10 11:01:16;;;;;;;2.26;1.16;;;;;;;20.19;56.22;100645.55;;;;-56
2019/10/10 11:04:16;;;;;;;1.47;1.05;;;;;;;20.18;56.22;100653.66;;;;-56
2019/10/10 11:07:17;;;;;;;1.40;0.98;;;;;;;20.18;56.25;100655.00;;;;-56
2019/10/10 11:10:16;;;;;;;1.78;1.14;;;;;;;20.15;56.23;100657.98;;;;-56
2019/10/10 11:13:16;;;;;;;1.31;1.00;;;;;;;20.15;56.17;100656.03;;;;-56
2019/10/10 11:16:16;;;;;;;1.92;1.10;;;;;;;20.15;56.18;100651.17;;;;-56
2019/10/10 11:19:16;;;;;;;1.89;1.09;;;;;;;20.13;56.21;100651.75;;;;-56
2019/10/10 11:22:16;;;;;;;1.45;1.12;;;;;;;20.11;56.18;100657.87;;;;-56
2019/10/10 11:25:18;;;;;;;1.65;1.08;;;;;;;20.09;56.17;100658.22;;;;-56
2019/10/10 11:28:16;;;;;;;2.88;1.06;;;;;;;20.09;56.20;100655.44;;;;-58
2019/10/10 11:31:16;;;;;;;1.61;1.10;;;;;;;20.09;56.23;100655.20;;;;-58
2019/10/10 11:34:16;;;;;;;2.59;1.11;;;;;;;20.09;56.13;100658.72;;;;-58
2019/10/10 11:37:16;;;;;;;3.65;1.19;;;;;;;20.08;56.13;100664.77;;;;-58
2019/10/10 11:40:16;;;;;;;3.41;1.37;;;;;;;20.07;56.13;100667.58;;;;-57
2019/10/10 11:43:16;;;;;;;5.68;1.31;;;;;;;20.06;56.09;100669.48;;;;-57
2019/10/10 11:46:16;;;;;;;4.08;1.13;;;;;;;20.03;56.15;100670.86;;;;-58
2019/10/10 11:49:16;;;;;;;2.63;1.23;;;;;;;20.04;56.14;100672.73;;;;-57
2019/10/10 11:52:16;;;;;;;2.74;1.17;;;;;;;20.03;56.17;100676.72;;;;-51
2019/10/10 11:55:16;;;;;;;2.90;1.27;;;;;;;20.02;56.17;100674.50;;;;-48
2019/10/10 11:58:16;;;;;;;2.35;1.21;;;;;;;20.02;56.15;100674.89;;;;-47
2019/10/10 12:01:16;;;;;;;5.23;1.31;;;;;;;20.00;56.21;100681.51;;;;-48
2019/10/10 12:04:16;;;;;;;4.57;1.35;;;;;;;19.99;56.20;100682.73;;;;-48
2019/10/10 12:07:16;;;;;;;3.27;1.29;;;;;;;19.98;56.19;100685.31;;;;-48
2019/10/10 12:10:16;;;;;;;2.77;1.20;;;;;;;19.97;56.25;100690.77;;;;-48
2019/10/10 12:13:16;;;;;;;2.30;1.09;;;;;;;19.97;56.18;100690.59;;;;-49
2019/10/10 12:16:16;;;;;;;1.38;1.09;;;;;;;19.96;56.17;100692.19;;;;-47
2019/10/10 12:19:16;;;;;;;1.39;1.06;;;;;;;19.95;56.21;100696.03;;;;-48
2019/10/10 12:22:16;;;;;;;1.67;1.20;;;;;;;19.93;56.23;100692.53;;;;-48
2019/10/10 12:25:16;;;;;;;1.88;1.08;;;;;;;19.93;56.23;100693.93;;;;-48
2019/10/10 12:28:16;;;;;;;2.75;1.22;;;;;;;19.93;56.26;100693.89;;;;-48
2019/10/10 12:31:16;;;;;;;2.76;1.01;;;;;;;19.91;56.24;100691.55;;;;-51
2019/10/10 12:34:16;;;;;;;2.88;1.20;;;;;;;19.91;56.27;100689.20;;;;-51
2019/10/10 12:37:16;;;;;;;1.41;1.01;;;;;;;19.90;56.25;100683.40;;;;-50
2019/10/10 12:40:16;;;;;;;3.35;1.20;;;;;;;19.91;56.23;100679.75;;;;-51
2019/10/10 12:43:16;;;;;;;1.55;1.17;;;;;;;19.89;56.28;100686.10;;;;-51
2019/10/10 12:46:16;;;;;;;1.31;1.18;;;;;;;19.88;56.30;100694.54;;;;-50
2019/10/10 12:49:16;;;;;;;2.68;0.96;;;;;;;19.88;56.29;100697.38;;;;-51
2019/10/10 12:52:16;;;;;;;1.20;1.10;;;;;;;19.87;56.31;100695.39;;;;-51
2019/10/10 12:55:16;;;;;;;1.07;1.00;;;;;;;19.87;56.31;100696.33;;;;-51
2019/10/10 12:58:16;;;;;;;1.95;1.15;;;;;;;19.86;56.36;100695.01;;;;-51
2019/10/10 13:01:16;;;;;;;1.51;1.08;;;;;;;19.85;56.31;100695.47;;;;-51
2019/10/10 13:04:16;;;;;;;1.63;1.19;;;;;;;19.84;56.33;100695.63;;;;-51
2019/10/10 13:07:16;;;;;;;2.73;1.17;;;;;;;19.85;56.34;100700.16;;;;-51
2019/10/10 13:10:16;;;;;;;1.17;1.02;;;;;;;19.83;56.38;100702.45;;;;-51
2019/10/10 13:13:16;;;;;;;1.66;1.18;;;;;;;19.82;56.38;100695.03;;;;-51
2019/10/10 13:16:16;;;;;;;1.41;1.05;;;;;;;19.82;56.37;100702.56;;;;-50
2019/10/10 13:19:16;;;;;;;1.25;1.01;;;;;;;19.82;56.36;100675.48;;;;-50
2019/10/10 13:22:16;;;;;;;1.85;1.13;;;;;;;19.84;56.31;100702.96;;;;-50
2019/10/10 13:25:16;;;;;;;2.48;1.15;;;;;;;19.82;56.37;100698.28;;;;-47
2019/10/10 13:28:16;;;;;;;2.26;1.17;;;;;;;19.85;56.34;100692.55;;;;-55
2019/10/10 13:31:16;;;;;;;1.16;1.03;;;;;;;19.85;56.46;100692.22;;;;-54
2019/10/10 13:34:16;;;;;;;2.73;1.16;;;;;;;19.85;56.50;100693.66;;;;-50
2019/10/10 13:37:16;;;;;;;4.43;1.26;;;;;;;19.85;56.42;100695.47;;;;-50
2019/10/10 13:40:16;;;;;;;5.01;1.29;;;;;;;19.86;56.40;100697.13;;;;-48
2019/10/10 13:43:16;;;;;;;2.45;1.36;;;;;;;19.85;56.42;100695.34;;;;-49
2019/10/10 13:46:16;;;;;;;1.95;1.23;;;;;;;19.84;56.44;100696.69;;;;-49
2019/10/10 13:49:16;;;;;;;1.57;1.20;;;;;;;19.82;56.47;100692.69;;;;-49
2019/10/10 13:52:16;;;;;;;3.33;1.30;;;;;;;19.85;56.44;100692.66;;;;-44
2019/10/10 13:55:16;;;;;;;2.57;1.13;;;;;;;19.84;56.47;100690.16;;;;-45
2019/10/10 13:58:16;;;;;;;3.57;1.17;;;;;;;19.84;56.50;100693.34;;;;-50
2019/10/10 14:01:16;;;;;;;1.38;1.13;;;;;;;19.86;56.46;100692.27;;;;-56
2019/10/10 14:04:16;;;;;;;4.90;1.23;;;;;;;19.90;56.54;100700.73;;;;-48
2019/10/10 14:07:16;;;;;;;2.36;1.26;;;;;;;19.90;56.54;100706.13;;;;-50
2019/10/10 14:10:16;;;;;;;3.53;1.41;;;;;;;19.94;56.63;100716.67;;;;-54
2019/10/10 14:13:16;;;;;;;2.15;1.31;;;;;;;19.96;56.63;100717.88;;;;-51
2019/10/10 14:16:16;;;;;;;3.39;1.12;;;;;;;20.00;56.63;100729.45;;;;-50
2019/10/10 14:19:16;;;;;;;3.37;1.20;;;;;;;19.99;56.68;100731.96;;;;-47
2019/10/10 14:22:16;;;;;;;6.86;1.33;;;;;;;20.02;56.81;100740.95;;;;-48
2019/10/10 14:25:16;;;;;;;4.33;1.31;;;;;;;20.03;56.99;100740.16;;;;-61
2019/10/10 14:28:16;;;;;;;9.05;1.48;;;;;;;20.04;56.83;100742.09;;;;-49
2019/10/10 14:31:16;;;;;;;3.15;1.30;;;;;;;20.08;56.82;100747.77;;;;-47
2019/10/10 14:34:16;;;;;;;3.37;1.30;;;;;;;20.10;56.86;100736.06;;;;-50
2019/10/10 14:37:16;;;;;;;3.90;1.27;;;;;;;20.13;56.79;100742.30;;;;-49
2019/10/10 14:40:16;;;;;;;7.13;1.47;;;;;;;20.14;56.72;100731.62;;;;-55
2019/10/10 14:43:16;;;;;;;2.97;1.24;;;;;;;20.17;56.73;100730.19;;;;-51
2019/10/10 14:46:16;;;;;;;3.09;1.31;;;;;;;20.21;56.81;100723.88;;;;-57
2019/10/10 14:49:16;;;;;;;4.52;1.42;;;;;;;20.25;56.69;100718.87;;;;-45
2019/10/10 14:52:16;;;;;;;7.36;1.71;;;;;;;20.29;56.60;100718.05;;;;-67
2019/10/10 14:55:16;;;;;;;4.44;1.37;;;;;;;20.29;56.66;100715.63;;;;-51
2019/10/10 14:58:16;;;;;;;5.49;1.59;;;;;;;20.34;56.53;100718.84;;;;-49
2019/10/10 15:01:16;;;;;;;9.11;1.65;;;;;;;20.38;56.56;100719.97;;;;-53
2019/10/10 15:04:16;;;;;;;3.90;1.30;;;;;;;20.39;56.67;100725.28;;;;-50
2019/10/10 15:07:16;;;;;;;3.12;1.34;;;;;;;20.43;56.43;100730.16;;;;-48
2019/10/10 15:10:16;;;;;;;2.90;1.38;;;;;;;20.45;56.42;100734.20;;;;-47
2019/10/10 15:13:16;;;;;;;4.00;1.45;;;;;;;20.47;56.42;100735.87;;;;-45
2019/10/10 15:16:16;;;;;;;5.25;1.31;;;;;;;20.50;56.52;100734.06;;;;-46
2019/10/10 15:19:16;;;;;;;3.37;1.25;;;;;;;20.52;56.54;100737.00;;;;-61
2019/10/10 15:22:16;;;;;;;2.75;1.12;;;;;;;20.55;56.67;100740.66;;;;-57
2019/10/10 15:25:16;;;;;;;2.44;1.21;;;;;;;20.57;56.83;100739.80;;;;-55
2019/10/10 15:28:16;;;;;;;3.90;1.37;;;;;;;20.58;56.63;100744.31;;;;-56
2019/10/10 15:31:16;;;;;;;3.63;1.13;;;;;;;20.60;56.66;100748.09;;;;-52
2019/10/10 15:34:16;;;;;;;2.85;1.27;;;;;;;20.61;56.62;100755.63;;;;-50
2019/10/10 15:37:17;;;;;;;1.75;1.11;;;;;;;20.62;56.44;100763.96;;;;-51
2019/10/10 15:40:16;;;;;;;2.07;1.30;;;;;;;20.64;56.45;100767.57;;;;-60
2019/10/10 15:43:16;;;;;;;2.40;1.25;;;;;;;20.65;56.44;100774.56;;;;-58
2019/10/10 15:46:16;;;;;;;2.15;1.26;;;;;;;20.67;56.46;100770.79;;;;-54
2019/10/10 15:49:16;;;;;;;3.23;1.34;;;;;;;20.67;56.43;100769.28;;;;-55
2019/10/10 15:52:16;;;;;;;2.63;1.13;;;;;;;20.67;56.53;100766.03;;;;-48
2019/10/10 15:55:16;;;;;;;3.07;1.43;;;;;;;20.68;56.51;100765.06;;;;-45
2019/10/10 15:58:17;;;;;;;2.25;1.17;;;;;;;20.69;56.51;100765.44;;;;-45
2019/10/10 16:01:16;;;;;;;1.33;1.23;;;;;;;20.69;56.42;100769.20;;;;-47
2019/10/10 16:04:16;;;;;;;2.65;1.35;;;;;;;20.70;56.44;100772.37;;;;-51
2019/10/10 16:07:16;;;;;;;1.35;1.10;;;;;;;20.71;56.49;100778.12;;;;-57
2019/10/10 16:10:16;;;;;;;2.43;1.29;;;;;;;20.71;56.41;100780.14;;;;-59
2019/10/10 16:13:16;;;;;;;2.40;1.20;;;;;;;20.73;56.33;100778.17;;;;-58
2019/10/10 16:16:16;;;;;;;2.75;1.37;;;;;;;20.72;56.21;100779.07;;;;-58
2019/10/10 16:19:16;;;;;;;1.78;1.21;;;;;;;20.71;56.25;100783.05;;;;-47
2019/10/10 16:22:16;;;;;;;1.69;1.17;;;;;;;20.71;56.20;100785.91;;;;-50
2019/10/10 16:25:16;;;;;;;2.29;1.23;;;;;;;20.69;56.11;100784.91;;;;-51
2019/10/10 16:28:16;;;;;;;2.07;1.13;;;;;;;20.68;56.15;100786.89;;;;-58
2019/10/10 16:31:16;;;;;;;5.25;1.30;;;;;;;20.67;56.10;100790.20;;;;-50
2019/10/10 16:34:16;;;;;;;1.45;1.14;;;;;;;20.66;56.08;100789.81;;;;-50
2019/10/10 16:37:16;;;;;;;1.45;1.11;;;;;;;20.65;56.01;100789.84;;;;-51
2019/10/10 16:40:16;;;;;;;1.43;1.17;;;;;;;20.65;56.00;100789.16;;;;-50
2019/10/10 16:43:16;;;;;;;1.19;1.09;;;;;;;20.64;56.01;100787.55;;;;-50
2019/10/10 16:46:16;;;;;;;1.26;1.11;;;;;;;20.64;55.96;100790.30;;;;-50
2019/10/10 16:49:16;;;;;;;1.84;1.10;;;;;;;20.62;55.94;100793.77;;;;-58
2019/10/10 16:52:16;;;;;;;1.55;1.19;;;;;;;20.61;55.97;100795.30;;;;-58
2019/10/10 16:55:16;;;;;;;1.46;1.10;;;;;;;20.61;55.90;100798.66;;;;-48
2019/10/10 16:58:16;;;;;;;1.51;1.14;;;;;;;20.61;55.90;100798.99;;;;-58